sensor_id;sensor_type;location;lat;lon;timestamp;temperature;humidity
15535;DHT22;7869;49.264;8.596;2022-09-01T00:02:00;17.30;99.90
15535;DHT22;7869;49.264;8.596;2022-09-01T00:04:33;17.20;99.90
15535;DHT22;7869;49.264;8.596;2022-09-01T00:07:00;17.30;99.90
15535;DHT22;7869;49.264;8.596;2022-09-01T00:09:26;17.20;99.90
15535;DHT22;7869;49.264;8.596;2022-09-01T00:11:52;17.20;99.90
15535;DHT22;7869;49.264;8.596;2022-09-01T00:14:22;17.10;99.90
15535;DHT22;7869;49.264;8.596;2022-09-01T00:16:48;17.20;99.90
15535;DHT22;7869;49.264;8.596;2022-09-01T00:19:13;17.20;99.90
15535;DHT22;7869;49.264;8.596;2022-09-01T00:21:40;17.20;99.90
15535;DHT22;7869;49.264;8.596;2022-09-01T00:24:07;17.20;99.90
15535;DHT22;7869;49.264;8.596;2022-09-01T00:26:32;17.10;99.90
15535;DHT22;7869;49.264;8.596;2022-09-01T00:28:58;17.10;99.90
15535;DHT22;7869;49.264;8.596;2022-09-01T00:31:26;17.10;99.90
15535;DHT22;7869;49.264;8.596;2022-09-01T00:33:52;17.10;99.90
15535;DHT22;7869;49.264;8.596;2022-09-01T00:36:17;17.10;99.90
15535;DHT22;7869;49.264;8.596;2022-09-01T00:38:43;17.00;99.90
15535;DHT22;7869;49.264;8.596;2022-09-01T00:41:09;17.00;99.90
15535;DHT22;7869;49.264;8.596;2022-09-01T00:43:42;17.10;99.90
15535;DHT22;7869;49.264;8.596;2022-09-01T00:46:10;17.10;99.90
15535;DHT22;7869;49.264;8.596;2022-09-01T00:48:37;17.10;99.90
15535;DHT22;7869;49.264;8.596;2022-09-01T00:51:03;17.10;99.90
15535;DHT22;7869;49.264;8.596;2022-09-01T00:53:29;17.10;99.90
15535;DHT22;7869;49.264;8.596;2022-09-01T00:55:55;17.30;99.90
15535;DHT22;7869;49.264;8.596;2022-09-01T00:58:21;17.30;99.90
15535;DHT22;7869;49.264;8.596;2022-09-01T01:00:47;17.40;99.90
15535;DHT22;7869;49.264;8.596;2022-09-01T01:03:14;17.40;99.90
15535;DHT22;7869;49.264;8.596;2022-09-01T01:05:40;17.40;99.90
15535;DHT22;7869;49.264;8.596;2022-09-01T01:08:07;17.50;99.90
15535;DHT22;7869;49.264;8.596;2022-09-01T01:10:34;17.40;99.90
15535;DHT22;7869;49.264;8.596;2022-09-01T01:13:00;17.50;99.90
15535;DHT22;7869;49.264;8.596;2022-09-01T01:15:27;17.60;99.90
15535;DHT22;7869;49.264;8.596;2022-09-01T01:17:53;17.70;99.90
15535;DHT22;7869;49.264;8.596;2022-09-01T01:20:18;17.80;99.90
15535;DHT22;7869;49.264;8.596;2022-09-01T01:25:32;17.70;99.90
15535;DHT22;7869;49.264;8.596;2022-09-01T01:28:02;17.60;99.90
15535;DHT22;7869;49.264;8.596;2022-09-01T01:30:28;17.50;99.90
15535;DHT22;7869;49.264;8.596;2022-09-01T01:32:56;17.40;99.90
15535;DHT22;7869;49.264;8.596;2022-09-01T01:35:22;17.40;99.90
15535;DHT22;7869;49.264;8.596;2022-09-01T01:37:49;17.30;99.90
15535;DHT22;7869;49.264;8.596;2022-09-01T01:40:16;17.30;99.90
15535;DHT22;7869;49.264;8.596;2022-09-01T01:42:43;17.30;99.90
15535;DHT22;7869;49.264;8.596;2022-09-01T01:45:10;17.30;99.90
15535;DHT22;7869;49.264;8.596;2022-09-01T01:47:37;17.20;99.90
15535;DHT22;7869;49.264;8.596;2022-09-01T01:50:04;17.40;99.90
15535;DHT22;7869;49.264;8.596;2022-09-01T01:52:34;17.40;99.90
15535;DHT22;7869;49.264;8.596;2022-09-01T01:54:59;17.40;99.90
15535;DHT22;7869;49.264;8.596;2022-09-01T01:57:25;17.50;99.90
15535;DHT22;7869;49.264;8.596;2022-09-01T01:59:56;17.40;99.90
15535;DHT22;7869;49.264;8.596;2022-09-01T02:02:21;17.40;99.90
15535;DHT22;7869;49.264;8.596;2022-09-01T02:04:47;17.40;99.90
15535;DHT22;7869;49.264;8.596;2022-09-01T02:07:13;17.40;99.90
15535;DHT22;7869;49.264;8.596;2022-09-01T02:09:39;17.40;99.90
15535;DHT22;7869;49.264;8.596;2022-09-01T02:12:08;17.40;99.90
15535;DHT22;7869;49.264;8.596;2022-09-01T02:14:33;17.40;99.90
15535;DHT22;7869;49.264;8.596;2022-09-01T02:16:59;17.40;99.90
15535;DHT22;7869;49.264;8.596;2022-09-01T02:19:26;17.30;99.90
15535;DHT22;7869;49.264;8.596;2022-09-01T02:21:51;17.30;99.90
15535;DHT22;7869;49.264;8.596;2022-09-01T02:24:21;17.20;99.90
15535;DHT22;7869;49.264;8.596;2022-09-01T02:26:48;17.20;99.90
15535;DHT22;7869;49.264;8.596;2022-09-01T02:29:15;17.10;99.90
15535;DHT22;7869;49.264;8.596;2022-09-01T02:31:46;17.00;99.90
15535;DHT22;7869;49.264;8.596;2022-09-01T02:34:12;16.90;99.90
15535;DHT22;7869;49.264;8.596;2022-09-01T02:36:39;16.80;99.90
15535;DHT22;7869;49.264;8.596;2022-09-01T02:39:17;16.70;99.90
15535;DHT22;7869;49.264;8.596;2022-09-01T02:41:44;16.70;99.90
15535;DHT22;7869;49.264;8.596;2022-09-01T02:44:09;16.60;99.90
15535;DHT22;7869;49.264;8.596;2022-09-01T02:46:42;16.50;99.90
15535;DHT22;7869;49.264;8.596;2022-09-01T02:49:09;16.50;99.90
15535;DHT22;7869;49.264;8.596;2022-09-01T02:51:40;16.50;99.90
15535;DHT22;7869;49.264;8.596;2022-09-01T02:54:05;16.40;99.90
15535;DHT22;7869;49.264;8.596;2022-09-01T02:56:31;16.40;99.90
15535;DHT22;7869;49.264;8.596;2022-09-01T02:58:57;16.30;99.90
15535;DHT22;7869;49.264;8.596;2022-09-01T03:01:26;16.20;99.90
15535;DHT22;7869;49.264;8.596;2022-09-01T03:03:54;16.10;99.90
15535;DHT22;7869;49.264;8.596;2022-09-01T03:06:19;16.10;99.90
15535;DHT22;7869;49.264;8.596;2022-09-01T03:08:48;16.10;99.90
15535;DHT22;7869;49.264;8.596;2022-09-01T03:11:14;16.20;99.90
15535;DHT22;7869;49.264;8.596;2022-09-01T03:13:40;16.20;99.90
15535;DHT22;7869;49.264;8.596;2022-09-01T03:16:06;16.10;99.90
15535;DHT22;7869;49.264;8.596;2022-09-01T03:18:32;16.20;99.90
15535;DHT22;7869;49.264;8.596;2022-09-01T03:20:58;16.40;99.90
15535;DHT22;7869;49.264;8.596;2022-09-01T03:23:23;16.40;99.90
15535;DHT22;7869;49.264;8.596;2022-09-01T03:25:52;16.30;99.90
15535;DHT22;7869;49.264;8.596;2022-09-01T03:28:18;16.30;99.90
15535;DHT22;7869;49.264;8.596;2022-09-01T03:30:48;16.20;99.90
15535;DHT22;7869;49.264;8.596;2022-09-01T03:33:14;16.20;99.90
15535;DHT22;7869;49.264;8.596;2022-09-01T03:35:41;16.10;99.90
15535;DHT22;7869;49.264;8.596;2022-09-01T03:38:07;16.00;99.90
15535;DHT22;7869;49.264;8.596;2022-09-01T03:40:33;16.00;99.90
15535;DHT22;7869;49.264;8.596;2022-09-01T03:43:00;15.80;99.90
15535;DHT22;7869;49.264;8.596;2022-09-01T03:45:27;15.80;99.90
15535;DHT22;7869;49.264;8.596;2022-09-01T03:47:53;15.80;99.90
15535;DHT22;7869;49.264;8.596;2022-09-01T03:50:20;15.70;99.90
15535;DHT22;7869;49.264;8.596;2022-09-01T03:52:50;15.60;99.90
15535;DHT22;7869;49.264;8.596;2022-09-01T03:55:18;15.60;99.90
15535;DHT22;7869;49.264;8.596;2022-09-01T03:57:51;15.60;99.90
15535;DHT22;7869;49.264;8.596;2022-09-01T04:00:17;15.50;99.90
15535;DHT22;7869;49.264;8.596;2022-09-01T04:02:48;15.50;99.90
15535;DHT22;7869;49.264;8.596;2022-09-01T04:05:16;15.50;99.90
15535;DHT22;7869;49.264;8.596;2022-09-01T04:07:42;15.50;99.90
15535;DHT22;7869;49.264;8.596;2022-09-01T04:10:10;15.40;99.90
15535;DHT22;7869;49.264;8.596;2022-09-01T04:12:36;15.40;99.90
15535;DHT22;7869;49.264;8.596;2022-09-01T04:15:02;15.40;99.90
15535;DHT22;7869;49.264;8.596;2022-09-01T04:17:28;15.40;99.90
15535;DHT22;7869;49.264;8.596;2022-09-01T04:20:11;15.40;99.90
15535;DHT22;7869;49.264;8.596;2022-09-01T04:22:39;15.40;99.90
15535;DHT22;7869;49.264;8.596;2022-09-01T04:25:05;15.30;99.90
15535;DHT22;7869;49.264;8.596;2022-09-01T04:27:30;15.30;99.90
15535;DHT22;7869;49.264;8.596;2022-09-01T04:29:56;15.20;99.90
15535;DHT22;7869;49.264;8.596;2022-09-01T04:32:21;15.20;99.90
15535;DHT22;7869;49.264;8.596;2022-09-01T04:34:48;15.20;99.90
15535;DHT22;7869;49.264;8.596;2022-09-01T04:37:18;15.10;99.90
15535;DHT22;7869;49.264;8.596;2022-09-01T04:39:51;15.10;99.90
15535;DHT22;7869;49.264;8.596;2022-09-01T04:42:17;15.10;99.90
15535;DHT22;7869;49.264;8.596;2022-09-01T04:44:47;15.00;99.90
15535;DHT22;7869;49.264;8.596;2022-09-01T04:47:13;15.00;99.90
15535;DHT22;7869;49.264;8.596;2022-09-01T04:49:39;15.00;99.90
15535;DHT22;7869;49.264;8.596;2022-09-01T04:52:04;15.00;99.90
15535;DHT22;7869;49.264;8.596;2022-09-01T04:54:30;15.00;99.90
15535;DHT22;7869;49.264;8.596;2022-09-01T04:56:57;15.00;99.90
15535;DHT22;7869;49.264;8.596;2022-09-01T04:59:23;15.00;99.90
15535;DHT22;7869;49.264;8.596;2022-09-01T05:01:49;15.00;99.90
15535;DHT22;7869;49.264;8.596;2022-09-01T05:04:19;15.00;99.90
15535;DHT22;7869;49.264;8.596;2022-09-01T05:06:48;15.00;99.90
15535;DHT22;7869;49.264;8.596;2022-09-01T05:09:13;15.00;99.90
15535;DHT22;7869;49.264;8.596;2022-09-01T05:11:41;15.10;99.90
15535;DHT22;7869;49.264;8.596;2022-09-01T05:14:10;15.00;99.90
15535;DHT22;7869;49.264;8.596;2022-09-01T05:16:36;15.10;99.90
15535;DHT22;7869;49.264;8.596;2022-09-01T05:19:06;15.10;99.90
15535;DHT22;7869;49.264;8.596;2022-09-01T05:21:31;15.10;99.90
15535;DHT22;7869;49.264;8.596;2022-09-01T05:23:57;15.20;99.90
15535;DHT22;7869;49.264;8.596;2022-09-01T05:26:29;15.30;99.90
15535;DHT22;7869;49.264;8.596;2022-09-01T05:28:57;15.40;99.90
15535;DHT22;7869;49.264;8.596;2022-09-01T05:31:23;15.30;99.90
15535;DHT22;7869;49.264;8.596;2022-09-01T05:33:49;15.40;99.90
15535;DHT22;7869;49.264;8.596;2022-09-01T05:36:17;15.50;99.90
15535;DHT22;7869;49.264;8.596;2022-09-01T05:38:44;15.50;99.90
15535;DHT22;7869;49.264;8.596;2022-09-01T05:41:12;15.50;99.90
15535;DHT22;7869;49.264;8.596;2022-09-01T05:43:40;15.50;99.90
15535;DHT22;7869;49.264;8.596;2022-09-01T05:46:09;15.50;99.90
15535;DHT22;7869;49.264;8.596;2022-09-01T05:48:35;15.60;99.90
15535;DHT22;7869;49.264;8.596;2022-09-01T05:51:05;15.60;99.90
15535;DHT22;7869;49.264;8.596;2022-09-01T05:53:31;15.70;99.90
15535;DHT22;7869;49.264;8.596;2022-09-01T05:55:58;15.70;99.90
15535;DHT22;7869;49.264;8.596;2022-09-01T05:58:25;15.70;99.90
15535;DHT22;7869;49.264;8.596;2022-09-01T06:00:52;15.70;99.90
15535;DHT22;7869;49.264;8.596;2022-09-01T06:03:18;15.80;99.90
15535;DHT22;7869;49.264;8.596;2022-09-01T06:05:44;15.80;99.90
15535;DHT22;7869;49.264;8.596;2022-09-01T06:08:17;15.90;99.90
15535;DHT22;7869;49.264;8.596;2022-09-01T06:10:43;15.90;99.90
15535;DHT22;7869;49.264;8.596;2022-09-01T06:13:09;16.00;99.90
15535;DHT22;7869;49.264;8.596;2022-09-01T06:15:35;16.00;99.90
15535;DHT22;7869;49.264;8.596;2022-09-01T06:18:04;16.10;99.90
15535;DHT22;7869;49.264;8.596;2022-09-01T06:20:30;16.10;99.90
15535;DHT22;7869;49.264;8.596;2022-09-01T06:22:55;16.20;99.90
15535;DHT22;7869;49.264;8.596;2022-09-01T06:25:21;16.20;99.90
15535;DHT22;7869;49.264;8.596;2022-09-01T06:27:47;16.30;99.90
15535;DHT22;7869;49.264;8.596;2022-09-01T06:30:13;16.50;99.90
15535;DHT22;7869;49.264;8.596;2022-09-01T06:32:42;16.60;99.90
15535;DHT22;7869;49.264;8.596;2022-09-01T06:35:11;16.70;99.90
15535;DHT22;7869;49.264;8.596;2022-09-01T06:37:38;16.90;99.90
15535;DHT22;7869;49.264;8.596;2022-09-01T06:40:04;17.00;99.90
15535;DHT22;7869;49.264;8.596;2022-09-01T06:42:30;17.10;99.90
15535;DHT22;7869;49.264;8.596;2022-09-01T06:44:59;17.30;99.90
15535;DHT22;7869;49.264;8.596;2022-09-01T06:47:25;17.50;99.90
15535;DHT22;7869;49.264;8.596;2022-09-01T06:49:53;17.60;99.90
15535;DHT22;7869;49.264;8.596;2022-09-01T06:52:23;17.80;99.90
15535;DHT22;7869;49.264;8.596;2022-09-01T06:54:49;17.90;99.90
15535;DHT22;7869;49.264;8.596;2022-09-01T06:57:16;18.10;99.90
15535;DHT22;7869;49.264;8.596;2022-09-01T06:59:42;18.10;99.90
15535;DHT22;7869;49.264;8.596;2022-09-01T07:02:07;18.20;99.90
15535;DHT22;7869;49.264;8.596;2022-09-01T07:04:33;18.30;99.90
15535;DHT22;7869;49.264;8.596;2022-09-01T07:06:59;18.40;99.90
15535;DHT22;7869;49.264;8.596;2022-09-01T07:09:24;18.60;99.90
15535;DHT22;7869;49.264;8.596;2022-09-01T07:11:50;18.70;99.90
15535;DHT22;7869;49.264;8.596;2022-09-01T07:14:17;18.70;99.90
15535;DHT22;7869;49.264;8.596;2022-09-01T07:16:43;18.80;99.90
15535;DHT22;7869;49.264;8.596;2022-09-01T07:19:11;18.80;99.90
15535;DHT22;7869;49.264;8.596;2022-09-01T07:21:39;18.90;99.90
15535;DHT22;7869;49.264;8.596;2022-09-01T07:24:05;18.90;99.90
15535;DHT22;7869;49.264;8.596;2022-09-01T07:26:32;19.00;99.90
15535;DHT22;7869;49.264;8.596;2022-09-01T07:29:00;19.00;99.90
15535;DHT22;7869;49.264;8.596;2022-09-01T07:31:38;19.00;99.90
15535;DHT22;7869;49.264;8.596;2022-09-01T07:34:08;19.10;99.90
15535;DHT22;7869;49.264;8.596;2022-09-01T07:36:34;19.20;99.90
15535;DHT22;7869;49.264;8.596;2022-09-01T07:39:02;19.30;99.90
15535;DHT22;7869;49.264;8.596;2022-09-01T07:41:27;19.40;99.90
15535;DHT22;7869;49.264;8.596;2022-09-01T07:43:54;19.40;99.90
15535;DHT22;7869;49.264;8.596;2022-09-01T07:46:24;19.50;99.90
15535;DHT22;7869;49.264;8.596;2022-09-01T07:48:51;19.50;99.90
15535;DHT22;7869;49.264;8.596;2022-09-01T07:51:18;19.50;99.90
15535;DHT22;7869;49.264;8.596;2022-09-01T07:53:45;19.60;99.90
15535;DHT22;7869;49.264;8.596;2022-09-01T07:56:13;19.70;99.90
15535;DHT22;7869;49.264;8.596;2022-09-01T07:58:39;19.80;99.90
15535;DHT22;7869;49.264;8.596;2022-09-01T08:01:07;20.00;99.90
15535;DHT22;7869;49.264;8.596;2022-09-01T08:03:33;20.10;99.90
15535;DHT22;7869;49.264;8.596;2022-09-01T08:06:12;20.20;99.90
15535;DHT22;7869;49.264;8.596;2022-09-01T08:08:38;20.10;99.90
15535;DHT22;7869;49.264;8.596;2022-09-01T08:11:04;20.10;99.90
15535;DHT22;7869;49.264;8.596;2022-09-01T08:13:30;20.20;99.90
15535;DHT22;7869;49.264;8.596;2022-09-01T08:15:55;20.30;99.90
15535;DHT22;7869;49.264;8.596;2022-09-01T08:18:21;20.30;99.90
15535;DHT22;7869;49.264;8.596;2022-09-01T08:20:46;20.40;99.90
15535;DHT22;7869;49.264;8.596;2022-09-01T08:23:13;20.50;99.90
15535;DHT22;7869;49.264;8.596;2022-09-01T08:25:40;20.60;99.90
15535;DHT22;7869;49.264;8.596;2022-09-01T08:28:06;20.60;99.90
15535;DHT22;7869;49.264;8.596;2022-09-01T08:30:32;20.70;99.90
15535;DHT22;7869;49.264;8.596;2022-09-01T08:32:58;20.80;99.90
15535;DHT22;7869;49.264;8.596;2022-09-01T08:35:24;20.90;99.90
15535;DHT22;7869;49.264;8.596;2022-09-01T08:37:50;20.80;99.90
15535;DHT22;7869;49.264;8.596;2022-09-01T08:40:16;20.80;99.90
15535;DHT22;7869;49.264;8.596;2022-09-01T08:45:48;21.10;99.90
15535;DHT22;7869;49.264;8.596;2022-09-01T08:50:39;21.20;99.90
15535;DHT22;7869;49.264;8.596;2022-09-01T08:53:12;21.20;99.90
15535;DHT22;7869;49.264;8.596;2022-09-01T08:55:42;21.30;99.90
15535;DHT22;7869;49.264;8.596;2022-09-01T08:58:09;21.40;99.90
15535;DHT22;7869;49.264;8.596;2022-09-01T09:00:38;21.40;99.90
15535;DHT22;7869;49.264;8.596;2022-09-01T09:10:31;21.30;99.90
15535;DHT22;7869;49.264;8.596;2022-09-01T09:13:08;21.40;99.90
15535;DHT22;7869;49.264;8.596;2022-09-01T09:15:49;21.40;99.90
15535;DHT22;7869;49.264;8.596;2022-09-01T09:18:21;21.40;99.90
15535;DHT22;7869;49.264;8.596;2022-09-01T09:20:51;21.40;99.90
15535;DHT22;7869;49.264;8.596;2022-09-01T09:23:23;21.70;99.90
15535;DHT22;7869;49.264;8.596;2022-09-01T09:25:50;21.80;99.90
15535;DHT22;7869;49.264;8.596;2022-09-01T09:28:16;21.80;99.90
15535;DHT22;7869;49.264;8.596;2022-09-01T09:30:41;21.90;99.90
15535;DHT22;7869;49.264;8.596;2022-09-01T09:33:07;21.80;99.90
15535;DHT22;7869;49.264;8.596;2022-09-01T09:35:45;21.90;99.90
15535;DHT22;7869;49.264;8.596;2022-09-01T09:43:23;22.40;99.90
15535;DHT22;7869;49.264;8.596;2022-09-01T09:45:49;22.50;99.90
15535;DHT22;7869;49.264;8.596;2022-09-01T09:48:29;22.60;99.90
15535;DHT22;7869;49.264;8.596;2022-09-01T09:50:55;22.90;99.90
15535;DHT22;7869;49.264;8.596;2022-09-01T09:55:54;22.70;99.90
15535;DHT22;7869;49.264;8.596;2022-09-01T09:58:22;22.80;99.90
15535;DHT22;7869;49.264;8.596;2022-09-01T10:01:01;23.20;99.90
15535;DHT22;7869;49.264;8.596;2022-09-01T10:03:34;23.30;99.90
15535;DHT22;7869;49.264;8.596;2022-09-01T10:06:00;23.60;99.90
15535;DHT22;7869;49.264;8.596;2022-09-01T10:10:52;23.70;99.90
15535;DHT22;7869;49.264;8.596;2022-09-01T10:13:20;23.80;99.90
15535;DHT22;7869;49.264;8.596;2022-09-01T10:15:46;23.80;99.90
15535;DHT22;7869;49.264;8.596;2022-09-01T10:18:20;23.90;99.90
15535;DHT22;7869;49.264;8.596;2022-09-01T10:20:53;23.80;99.90
15535;DHT22;7869;49.264;8.596;2022-09-01T10:23:20;23.80;99.90
15535;DHT22;7869;49.264;8.596;2022-09-01T10:25:46;24.10;99.90
15535;DHT22;7869;49.264;8.596;2022-09-01T10:28:15;24.30;99.90
15535;DHT22;7869;49.264;8.596;2022-09-01T10:30:42;24.60;99.90
15535;DHT22;7869;49.264;8.596;2022-09-01T10:33:08;24.60;99.90
15535;DHT22;7869;49.264;8.596;2022-09-01T10:35:35;24.80;99.90
15535;DHT22;7869;49.264;8.596;2022-09-01T10:38:02;24.90;99.90
15535;DHT22;7869;49.264;8.596;2022-09-01T10:40:38;25.00;99.90
15535;DHT22;7869;49.264;8.596;2022-09-01T10:45:49;25.50;99.90
15535;DHT22;7869;49.264;8.596;2022-09-01T10:53:43;25.80;99.90
15535;DHT22;7869;49.264;8.596;2022-09-01T10:58:38;25.70;99.90
15535;DHT22;7869;49.264;8.596;2022-09-01T11:01:07;25.40;99.90
15535;DHT22;7869;49.264;8.596;2022-09-01T11:03:37;25.10;99.90
15535;DHT22;7869;49.264;8.596;2022-09-01T11:06:04;24.90;99.90
15535;DHT22;7869;49.264;8.596;2022-09-01T11:18:52;25.00;99.90
15535;DHT22;7869;49.264;8.596;2022-09-01T11:21:25;25.30;99.90
15535;DHT22;7869;49.264;8.596;2022-09-01T11:24:42;25.60;99.90
15535;DHT22;7869;49.264;8.596;2022-09-01T11:26:45;25.90;99.90
15535;DHT22;7869;49.264;8.596;2022-09-01T11:29:48;26.20;99.90
15535;DHT22;7869;49.264;8.596;2022-09-01T11:31:56;26.40;99.90
15535;DHT22;7869;49.264;8.596;2022-09-01T11:34:22;26.50;99.90
15535;DHT22;7869;49.264;8.596;2022-09-01T11:36:50;26.20;99.90
15535;DHT22;7869;49.264;8.596;2022-09-01T11:41:45;25.90;99.90
15535;DHT22;7869;49.264;8.596;2022-09-01T11:44:12;25.80;99.90
15535;DHT22;7869;49.264;8.596;2022-09-01T11:46:38;25.80;99.90
15535;DHT22;7869;49.264;8.596;2022-09-01T11:49:07;25.80;99.90
15535;DHT22;7869;49.264;8.596;2022-09-01T11:51:43;25.80;99.90
15535;DHT22;7869;49.264;8.596;2022-09-01T11:54:09;25.80;99.90
15535;DHT22;7869;49.264;8.596;2022-09-01T11:56:34;25.90;99.90
15535;DHT22;7869;49.264;8.596;2022-09-01T11:59:00;25.90;99.90
15535;DHT22;7869;49.264;8.596;2022-09-01T12:03:54;25.80;99.90
15535;DHT22;7869;49.264;8.596;2022-09-01T12:06:21;25.60;99.90
15535;DHT22;7869;49.264;8.596;2022-09-01T12:08:55;25.70;99.90
15535;DHT22;7869;49.264;8.596;2022-09-01T12:11:22;25.80;99.90
15535;DHT22;7869;49.264;8.596;2022-09-01T12:13:57;25.70;99.90
15535;DHT22;7869;49.264;8.596;2022-09-01T12:16:23;25.50;99.90
15535;DHT22;7869;49.264;8.596;2022-09-01T12:18:50;25.60;99.90
15535;DHT22;7869;49.264;8.596;2022-09-01T12:23:50;25.40;99.90
15535;DHT22;7869;49.264;8.596;2022-09-01T12:26:22;25.20;99.90
15535;DHT22;7869;49.264;8.596;2022-09-01T12:28:47;25.20;99.90
15535;DHT22;7869;49.264;8.596;2022-09-01T12:31:18;25.40;99.90
15535;DHT22;7869;49.264;8.596;2022-09-01T12:33:44;25.80;99.90
15535;DHT22;7869;49.264;8.596;2022-09-01T12:36:26;25.90;99.90
15535;DHT22;7869;49.264;8.596;2022-09-01T12:38:53;26.20;99.90
15535;DHT22;7869;49.264;8.596;2022-09-01T12:43:51;26.60;99.90
15535;DHT22;7869;49.264;8.596;2022-09-01T12:49:21;27.00;99.90
15535;DHT22;7869;49.264;8.596;2022-09-01T12:51:49;27.00;99.90
15535;DHT22;7869;49.264;8.596;2022-09-01T12:54:15;27.00;99.90
15535;DHT22;7869;49.264;8.596;2022-09-01T12:56:48;26.80;99.90
15535;DHT22;7869;49.264;8.596;2022-09-01T12:59:22;26.80;99.90
15535;DHT22;7869;49.264;8.596;2022-09-01T13:01:48;26.80;99.90
15535;DHT22;7869;49.264;8.596;2022-09-01T13:06:45;27.10;99.90
15535;DHT22;7869;49.264;8.596;2022-09-01T13:09:11;27.20;99.90
15535;DHT22;7869;49.264;8.596;2022-09-01T13:11:36;27.20;99.90
15535;DHT22;7869;49.264;8.596;2022-09-01T13:14:02;27.20;99.90
15535;DHT22;7869;49.264;8.596;2022-09-01T13:16:28;27.10;99.90
15535;DHT22;7869;49.264;8.596;2022-09-01T13:18:53;27.00;99.90
15535;DHT22;7869;49.264;8.596;2022-09-01T13:21:18;26.90;99.90
15535;DHT22;7869;49.264;8.596;2022-09-01T13:23:44;27.00;99.90
15535;DHT22;7869;49.264;8.596;2022-09-01T13:26:10;26.90;99.90
15535;DHT22;7869;49.264;8.596;2022-09-01T13:28:36;26.80;99.90
15535;DHT22;7869;49.264;8.596;2022-09-01T13:31:02;26.80;99.90
15535;DHT22;7869;49.264;8.596;2022-09-01T13:33:34;27.10;99.90
15535;DHT22;7869;49.264;8.596;2022-09-01T13:36:00;27.30;99.90
15535;DHT22;7869;49.264;8.596;2022-09-01T13:38:26;27.40;99.90
15535;DHT22;7869;49.264;8.596;2022-09-01T13:40:51;27.50;99.90
15535;DHT22;7869;49.264;8.596;2022-09-01T13:43:20;27.60;99.90
15535;DHT22;7869;49.264;8.596;2022-09-01T13:45:46;27.70;99.90
15535;DHT22;7869;49.264;8.596;2022-09-01T13:48:12;27.90;99.90
15535;DHT22;7869;49.264;8.596;2022-09-01T13:50:38;28.00;99.90
15535;DHT22;7869;49.264;8.596;2022-09-01T13:53:04;28.20;99.90
15535;DHT22;7869;49.264;8.596;2022-09-01T13:55:31;28.20;99.90
15535;DHT22;7869;49.264;8.596;2022-09-01T13:57:57;28.30;99.90
15535;DHT22;7869;49.264;8.596;2022-09-01T14:00:24;28.40;99.90
15535;DHT22;7869;49.264;8.596;2022-09-01T14:02:51;28.40;99.90
15535;DHT22;7869;49.264;8.596;2022-09-01T14:05:31;28.60;99.90
15535;DHT22;7869;49.264;8.596;2022-09-01T14:07:57;28.50;99.90
15535;DHT22;7869;49.264;8.596;2022-09-01T14:10:23;28.20;99.90
15535;DHT22;7869;49.264;8.596;2022-09-01T14:12:49;27.80;99.90
15535;DHT22;7869;49.264;8.596;2022-09-01T14:15:15;27.30;99.90
15535;DHT22;7869;49.264;8.596;2022-09-01T14:17:41;27.20;99.90
15535;DHT22;7869;49.264;8.596;2022-09-01T14:20:09;27.40;99.90
15535;DHT22;7869;49.264;8.596;2022-09-01T14:22:36;27.70;99.90
15535;DHT22;7869;49.264;8.596;2022-09-01T14:25:02;28.00;99.90
15535;DHT22;7869;49.264;8.596;2022-09-01T14:27:28;28.00;99.90
15535;DHT22;7869;49.264;8.596;2022-09-01T14:29:53;28.10;99.90
15535;DHT22;7869;49.264;8.596;2022-09-01T14:32:19;28.40;99.90
15535;DHT22;7869;49.264;8.596;2022-09-01T14:34:54;28.70;99.40
15535;DHT22;7869;49.264;8.596;2022-09-01T14:37:19;29.00;98.70
15535;DHT22;7869;49.264;8.596;2022-09-01T14:39:52;29.10;98.10
15535;DHT22;7869;49.264;8.596;2022-09-01T14:42:17;29.20;96.90
15535;DHT22;7869;49.264;8.596;2022-09-01T14:44:44;29.30;96.80
15535;DHT22;7869;49.264;8.596;2022-09-01T14:47:10;29.20;97.20
15535;DHT22;7869;49.264;8.596;2022-09-01T14:49:35;29.20;97.20
15535;DHT22;7869;49.264;8.596;2022-09-01T14:52:02;29.40;97.30
15535;DHT22;7869;49.264;8.596;2022-09-01T14:54:31;29.40;96.60
15535;DHT22;7869;49.264;8.596;2022-09-01T14:56:57;29.30;96.80
15535;DHT22;7869;49.264;8.596;2022-09-01T14:59:22;29.40;96.70
15535;DHT22;7869;49.264;8.596;2022-09-01T15:01:48;29.50;96.50
15535;DHT22;7869;49.264;8.596;2022-09-01T15:04:13;29.50;96.00
15535;DHT22;7869;49.264;8.596;2022-09-01T15:06:39;29.50;96.00
15535;DHT22;7869;49.264;8.596;2022-09-01T15:09:04;29.70;95.90
15535;DHT22;7869;49.264;8.596;2022-09-01T15:11:30;29.90;95.10
15535;DHT22;7869;49.264;8.596;2022-09-01T15:13:55;30.20;94.80
15535;DHT22;7869;49.264;8.596;2022-09-01T15:16:22;30.70;94.50
15535;DHT22;7869;49.264;8.596;2022-09-01T15:18:48;31.30;93.80
15535;DHT22;7869;49.264;8.596;2022-09-01T15:21:17;32.00;92.10
15535;DHT22;7869;49.264;8.596;2022-09-01T15:23:42;32.30;90.70
15535;DHT22;7869;49.264;8.596;2022-09-01T15:26:08;32.60;90.00
15535;DHT22;7869;49.264;8.596;2022-09-01T15:28:34;33.20;88.40
15535;DHT22;7869;49.264;8.596;2022-09-01T15:30:59;33.60;86.90
15535;DHT22;7869;49.264;8.596;2022-09-01T15:33:25;33.70;85.10
15535;DHT22;7869;49.264;8.596;2022-09-01T15:35:50;34.00;82.20
15535;DHT22;7869;49.264;8.596;2022-09-01T15:38:16;33.60;82.70
15535;DHT22;7869;49.264;8.596;2022-09-01T15:40:41;33.10;81.80
15535;DHT22;7869;49.264;8.596;2022-09-01T15:43:07;32.60;81.00
15535;DHT22;7869;49.264;8.596;2022-09-01T15:45:33;32.60;80.30
15535;DHT22;7869;49.264;8.596;2022-09-01T15:47:58;32.90;78.70
15535;DHT22;7869;49.264;8.596;2022-09-01T15:50:24;32.90;77.70
15535;DHT22;7869;49.264;8.596;2022-09-01T15:52:52;33.30;77.50
15535;DHT22;7869;49.264;8.596;2022-09-01T15:55:19;33.70;76.00
15535;DHT22;7869;49.264;8.596;2022-09-01T15:57:44;34.00;73.50
15535;DHT22;7869;49.264;8.596;2022-09-01T16:00:11;34.00;73.00
15535;DHT22;7869;49.264;8.596;2022-09-01T16:02:37;34.00;70.70
15535;DHT22;7869;49.264;8.596;2022-09-01T16:05:03;33.30;71.20
15535;DHT22;7869;49.264;8.596;2022-09-01T16:07:29;32.00;75.50
15535;DHT22;7869;49.264;8.596;2022-09-01T16:09:55;31.60;76.60
15535;DHT22;7869;49.264;8.596;2022-09-01T16:12:22;31.20;75.60
15535;DHT22;7869;49.264;8.596;2022-09-01T16:14:51;30.20;77.80
15535;DHT22;7869;49.264;8.596;2022-09-01T16:24:40;30.80;79.60
15535;DHT22;7869;49.264;8.596;2022-09-01T16:27:07;31.10;79.40
15535;DHT22;7869;49.264;8.596;2022-09-01T16:31:58;31.60;78.70
15535;DHT22;7869;49.264;8.596;2022-09-01T16:34:23;31.40;78.10
15535;DHT22;7869;49.264;8.596;2022-09-01T16:36:51;31.00;78.80
15535;DHT22;7869;49.264;8.596;2022-09-01T16:39:27;30.10;81.30
15535;DHT22;7869;49.264;8.596;2022-09-01T16:49:38;28.10;85.80
15535;DHT22;7869;49.264;8.596;2022-09-01T16:52:27;27.70;87.10
15535;DHT22;7869;49.264;8.596;2022-09-01T16:55:11;27.30;87.80
15535;DHT22;7869;49.264;8.596;2022-09-01T16:57:52;26.90;89.20
15535;DHT22;7869;49.264;8.596;2022-09-01T17:00:21;26.60;89.90
15535;DHT22;7869;49.264;8.596;2022-09-01T17:03:30;26.50;90.50
15535;DHT22;7869;49.264;8.596;2022-09-01T17:05:37;26.80;90.60
15535;DHT22;7869;49.264;8.596;2022-09-01T17:16:07;27.30;90.00